Time;durP1;ratioP1;P1;durP2;ratioP2;P2;SDS_P1;SDS_P2;PMS_P1;PMS_P2;Temp;Humidity;BMP_temperature;BMP_pressure;BME280_temperature;BME280_humidity;BME280_pressure;Samples;Min_cycle;Max_cycle;Signal;HPM_P1;HPM_P2
2021/08/23 00:01:36;;;;;;;3.00;2.90;;;26.00;57.10;;;;;;5126802;27;20475;-74
2021/08/23 00:04:05;;;;;;;2.80;2.70;;;26.00;57.20;;;;;;5126660;27;20499;-75
2021/08/23 00:06:34;;;;;;;2.87;2.77;;;25.90;57.10;;;;;;5126718;27;20449;-74
2021/08/23 00:09:02;;;;;;;2.63;2.53;;;25.90;57.10;;;;;;5126253;27;20474;-74
2021/08/23 00:11:30;;;;;;;3.00;2.90;;;25.90;57.20;;;;;;5126641;27;20470;-74
2021/08/23 00:13:58;;;;;;;2.73;2.63;;;25.90;57.10;;;;;;5126879;27;20668;-74
2021/08/23 00:16:26;;;;;;;2.83;2.70;;;25.90;57.10;;;;;;5126632;27;20441;-74
2021/08/23 00:18:54;;;;;;;2.63;2.50;;;25.90;57.20;;;;;;5126656;27;20428;-74
2021/08/23 00:21:24;;;;;;;2.63;2.53;;;25.90;57.20;;;;;;5126258;27;20413;-75
2021/08/23 00:24:05;;;;;;;3.50;3.40;;;25.90;57.10;;;;;;5126837;27;20473;-74
2021/08/23 00:26:33;;;;;;;2.83;2.73;;;25.90;57.30;;;;;;5126118;27;20448;-74
2021/08/23 00:29:01;;;;;;;2.80;2.70;;;25.80;57.20;;;;;;5126148;27;20466;-75
2021/08/23 00:31:29;;;;;;;2.70;2.60;;;25.80;57.30;;;;;;5125968;27;20435;-75
2021/08/23 00:33:57;;;;;;;2.77;2.67;;;25.80;57.30;;;;;;5126473;27;20463;-74
2021/08/23 00:36:25;;;;;;;3.00;2.90;;;25.80;57.20;;;;;;5126479;27;20413;-75
2021/08/23 00:38:55;;;;;;;2.70;2.60;;;25.80;57.30;;;;;;5125708;27;20474;-74
2021/08/23 00:41:23;;;;;;;2.57;2.47;;;25.80;57.30;;;;;;5125891;27;20483;-74
2021/08/23 00:43:51;;;;;;;2.80;2.70;;;25.80;57.30;;;;;;5125497;27;20410;-74
2021/08/23 00:46:19;;;;;;;2.50;2.40;;;25.80;57.30;;;;;;5125517;27;20477;-74
2021/08/23 00:48:47;;;;;;;2.57;2.47;;;25.80;57.30;;;;;;5125648;27;20409;-74
2021/08/23 00:51:15;;;;;;;2.43;2.33;;;25.80;57.30;;;;;;5125530;27;20522;-74
2021/08/23 00:53:43;;;;;;;3.00;2.80;;;25.80;57.30;;;;;;5125853;27;20474;-75
2021/08/23 00:56:13;;;;;;;2.50;2.40;;;25.80;57.20;;;;;;5125407;27;20499;-75
2021/08/23 00:58:41;;;;;;;2.43;2.33;;;25.80;57.30;;;;;;5125529;27;20509;-74
2021/08/23 01:01:12;;;;;;;2.40;2.30;;;25.70;57.20;;;;;;5125897;27;20445;-74
2021/08/23 01:03:44;;;;;;;3.00;2.90;;;25.70;57.40;;;;;;5125317;27;20450;-74
2021/08/23 01:06:12;;;;;;;3.40;3.20;;;25.70;57.40;;;;;;5125529;27;20455;-74
2021/08/23 01:08:41;;;;;;;2.30;2.20;;;25.70;57.50;;;;;;5125772;27;20429;-74
2021/08/23 01:11:10;;;;;;;2.60;2.50;;;25.70;57.50;;;;;;5125591;27;20402;-75
2021/08/23 01:13:41;;;;;;;3.03;2.93;;;25.70;57.40;;;;;;5125586;27;20516;-74
2021/08/23 01:16:09;;;;;;;2.40;2.30;;;25.70;57.40;;;;;;5125466;27;20418;-75
2021/08/23 01:18:37;;;;;;;2.77;2.57;;;25.70;57.40;;;;;;5125384;27;20442;-74
2021/08/23 01:21:07;;;;;;;2.47;2.37;;;25.70;57.40;;;;;;5125295;27;20511;-75
2021/08/23 01:23:35;;;;;;;2.67;2.57;;;25.70;57.50;;;;;;5125346;27;20491;-75
2021/08/23 01:26:05;;;;;;;2.60;2.50;;;25.70;57.40;;;;;;5125199;27;20528;-75
2021/08/23 01:28:38;;;;;;;2.50;2.40;;;25.70;57.40;;;;;;5124870;27;20443;-75
2021/08/23 01:31:16;;;;;;;2.60;2.50;;;25.70;57.50;;;;;;5127142;27;20420;-74
2021/08/23 01:33:46;;;;;;;2.50;2.40;;;25.70;57.40;;;;;;5125034;27;20444;-75
2021/08/23 01:36:14;;;;;;;2.77;2.67;;;25.70;57.40;;;;;;5124288;27;20466;-74
2021/08/23 01:38:42;;;;;;;2.70;2.60;;;25.70;57.40;;;;;;5124299;27;20452;-74
2021/08/23 01:41:10;;;;;;;2.43;2.33;;;25.70;57.40;;;;;;5093770;27;20446;-74
2021/08/23 01:43:38;;;;;;;2.40;2.30;;;25.70;57.40;;;;;;5100437;28;20415;-75
2021/08/23 01:46:06;;;;;;;2.57;2.47;;;25.60;57.40;;;;;;5116012;27;20475;-75
2021/08/23 01:48:34;;;;;;;2.70;2.50;;;25.60;57.40;;;;;;5107355;27;20446;-75
2021/08/23 01:51:03;;;;;;;2.67;2.57;;;25.60;57.40;;;;;;5101668;27;20527;-75
2021/08/23 01:53:32;;;;;;;2.77;2.67;;;25.60;57.50;;;;;;5102015;28;20462;-74
2021/08/23 01:56:02;;;;;;;2.60;2.50;;;25.50;57.60;;;;;;5103042;28;20455;-74
2021/08/23 01:58:30;;;;;;;2.67;2.57;;;25.50;57.50;;;;;;5104188;28;20436;-74
2021/08/23 02:00:58;;;;;;;2.70;2.50;;;25.50;57.40;;;;;;5104202;28;20526;-75
2021/08/23 02:03:26;;;;;;;2.80;2.70;;;25.60;57.60;;;;;;5104099;28;20438;-74
2021/08/23 02:05:54;;;;;;;2.43;2.33;;;25.50;57.50;;;;;;5103907;28;20446;-74
2021/08/23 02:08:24;;;;;;;2.80;2.63;;;25.50;57.50;;;;;;5104402;28;20402;-75
2021/08/23 02:10:52;;;;;;;2.60;2.50;;;25.50;57.50;;;;;;5104508;28;20451;-75
2021/08/23 02:13:22;;;;;;;2.90;2.70;;;25.50;57.50;;;;;;5104363;28;20434;-74
2021/08/23 02:15:49;;;;;;;2.30;2.20;;;25.50;57.50;;;;;;5104450;28;20438;-75
2021/08/23 02:18:17;;;;;;;2.90;2.70;;;25.50;57.60;;;;;;5104111;28;20442;-75
2021/08/23 02:20:45;;;;;;;2.73;2.63;;;25.50;57.50;;;;;;5104336;28;20452;-75
2021/08/23 02:23:13;;;;;;;2.70;2.50;;;25.50;57.50;;;;;;5104135;28;20463;-74
2021/08/23 02:25:43;;;;;;;2.17;2.07;;;25.50;57.50;;;;;;5104318;28;20435;-74
2021/08/23 02:28:11;;;;;;;2.90;2.80;;;25.50;57.50;;;;;;5103863;28;20471;-75
2021/08/23 02:30:39;;;;;;;2.30;2.20;;;25.50;57.40;;;;;;5104057;28;20436;-75
2021/08/23 02:33:07;;;;;;;2.73;2.63;;;25.50;57.50;;;;;;5103896;28;20447;-74
2021/08/23 02:35:35;;;;;;;2.60;2.50;;;25.50;57.50;;;;;;5103931;28;20444;-74
2021/08/23 02:38:03;;;;;;;2.67;2.57;;;25.50;57.50;;;;;;5103689;28;20464;-75
2021/08/23 02:40:31;;;;;;;2.83;2.63;;;25.50;57.50;;;;;;5105780;28;20431;-74
2021/08/23 02:43:00;;;;;;;2.80;2.70;;;25.50;57.50;;;;;;5107813;28;20439;-74
2021/08/23 02:45:28;;;;;;;2.90;2.70;;;25.50;57.40;;;;;;5108091;28;20407;-75
2021/08/23 02:47:57;;;;;;;2.47;2.37;;;25.50;57.50;;;;;;5107711;28;20510;-74
2021/08/23 02:50:25;;;;;;;2.70;2.60;;;25.50;57.40;;;;;;5107540;28;20440;-74
2021/08/23 02:52:55;;;;;;;2.50;2.40;;;25.50;57.50;;;;;;5107758;27;20461;-74
2021/08/23 02:55:23;;;;;;;2.47;2.37;;;25.50;57.50;;;;;;5108038;28;20458;-75
2021/08/23 02:57:51;;;;;;;2.57;2.47;;;25.40;57.50;;;;;;5108061;28;20572;-74
2021/08/23 03:00:21;;;;;;;2.60;2.50;;;25.40;57.40;;;;;;5107495;28;20418;-74
2021/08/23 03:02:49;;;;;;;2.50;2.40;;;25.40;57.50;;;;;;5107946;28;20447;-74
2021/08/23 03:05:17;;;;;;;2.67;2.57;;;25.40;57.50;;;;;;5107765;28;20422;-74
2021/08/23 03:07:46;;;;;;;2.63;2.53;;;25.40;57.40;;;;;;5107127;27;20467;-74
2021/08/23 03:10:18;;;;;;;2.53;2.43;;;25.50;57.60;;;;;;5107730;28;20421;-74
2021/08/23 03:12:45;;;;;;;2.80;2.70;;;25.40;58.10;;;;;;5106763;28;20515;-74
2021/08/23 03:15:13;;;;;;;2.00;2.00;;;25.40;57.60;;;;;;5107004;28;20406;-74
2021/08/23 03:17:43;;;;;;;2.80;2.70;;;25.40;57.50;;;;;;5106698;28;20501;-74
2021/08/23 03:20:12;;;;;;;2.47;2.37;;;25.40;57.50;;;;;;5107070;28;20438;-74
2021/08/23 03:22:40;;;;;;;2.67;2.57;;;25.40;57.50;;;;;;5107223;28;20457;-74
2021/08/23 03:25:08;;;;;;;2.60;2.50;;;25.40;57.50;;;;;;5106784;28;20406;-74
2021/08/23 03:27:36;;;;;;;2.77;2.67;;;25.40;57.60;;;;;;5106714;28;20466;-74
2021/08/23 03:30:05;;;;;;;2.60;2.50;;;25.40;57.60;;;;;;5107191;28;20440;-74
2021/08/23 03:32:34;;;;;;;2.40;2.30;;;25.40;57.70;;;;;;5107184;28;20438;-74
2021/08/23 03:35:04;;;;;;;3.13;2.93;;;25.30;57.60;;;;;;5106894;28;20479;-74
2021/08/23 03:37:33;;;;;;;2.53;2.43;;;25.30;57.60;;;;;;5107182;28;20535;-74
2021/08/23 03:40:00;;;;;;;2.60;2.50;;;25.30;57.60;;;;;;5106552;28;20456;-74
2021/08/23 03:42:29;;;;;;;2.27;2.17;;;25.30;57.60;;;;;;5106910;28;20468;-74
2021/08/23 03:44:57;;;;;;;2.63;2.53;;;25.30;57.80;;;;;;5106878;28;20436;-75
2021/08/23 03:47:27;;;;;;;2.50;2.40;;;25.30;57.80;;;;;;5106509;28;20442;-75
2021/08/23 03:49:55;;;;;;;2.63;2.53;;;25.20;57.70;;;;;;5106620;28;20494;-74
2021/08/23 03:52:25;;;;;;;2.87;2.67;;;25.20;57.70;;;;;;5106205;28;20435;-74
2021/08/23 03:54:53;;;;;;;2.20;2.10;;;25.30;57.80;;;;;;5106492;28;20467;-74
2021/08/23 03:57:21;;;;;;;2.23;2.13;;;25.20;57.70;;;;;;5106736;28;20500;-74
2021/08/23 03:59:49;;;;;;;2.50;2.40;;;25.20;57.90;;;;;;5106443;28;20446;-75
2021/08/23 04:02:17;;;;;;;2.57;2.40;;;25.20;58.00;;;;;;5099657;28;20517;-74
2021/08/23 04:04:45;;;;;;;2.50;2.40;;;25.20;57.80;;;;;;5108583;27;20461;-74
2021/08/23 04:07:13;;;;;;;2.30;2.20;;;25.20;57.90;;;;;;5113196;27;20566;-74
2021/08/23 04:09:43;;;;;;;2.53;2.43;;;25.20;57.90;;;;;;5106099;27;20492;-74
2021/08/23 04:12:10;;;;;;;2.30;2.20;;;25.20;57.90;;;;;;5106139;28;20501;-74
2021/08/23 04:14:38;;;;;;;2.43;2.30;;;25.20;57.90;;;;;;5106427;28;20415;-74
2021/08/23 04:17:06;;;;;;;2.73;2.63;;;25.20;57.90;;;;;;5105718;28;20444;-74
2021/08/23 04:19:34;;;;;;;2.43;2.33;;;25.20;57.90;;;;;;5106012;27;20472;-74
2021/08/23 04:22:02;;;;;;;2.50;2.40;;;25.20;57.90;;;;;;5105995;28;20543;-74
2021/08/23 04:24:31;;;;;;;2.20;2.10;;;25.20;57.90;;;;;;5105779;28;20418;-74
2021/08/23 04:27:00;;;;;;;2.67;2.47;;;25.20;57.90;;;;;;5106095;28;20450;-75
2021/08/23 04:29:28;;;;;;;2.30;2.20;;;25.20;57.90;;;;;;5105663;28;20403;-74
2021/08/23 04:31:56;;;;;;;2.33;2.23;;;25.20;57.90;;;;;;5106008;28;20455;-75
2021/08/23 04:34:24;;;;;;;2.43;2.33;;;25.20;57.80;;;;;;5106187;28;20430;-74
2021/08/23 04:36:52;;;;;;;2.50;2.30;;;25.20;58.40;;;;;;5106099;28;20439;-76
2021/08/23 04:39:21;;;;;;;2.43;2.33;;;25.20;57.90;;;;;;5105278;28;20410;-76
2021/08/23 04:41:52;;;;;;;2.40;2.30;;;25.20;57.90;;;;;;5106171;28;20467;-76
2021/08/23 04:44:21;;;;;;;2.20;2.10;;;25.20;57.90;;;;;;5105740;28;20436;-76
2021/08/23 04:46:50;;;;;;;2.43;2.33;;;25.20;57.90;;;;;;5105918;28;20457;-76
2021/08/23 04:49:18;;;;;;;3.03;2.83;;;25.20;57.80;;;;;;5105028;28;20431;-77
2021/08/23 04:51:46;;;;;;;2.53;2.43;;;25.20;57.80;;;;;;5105026;28;20424;-76
2021/08/23 04:54:14;;;;;;;2.30;2.20;;;25.20;57.90;;;;;;5105458;28;20451;-76
2021/08/23 04:56:42;;;;;;;2.60;2.50;;;25.20;57.90;;;;;;5105228;28;20500;-77
2021/08/23 04:59:10;;;;;;;2.30;2.20;;;25.20;58.00;;;;;;5105319;28;20444;-76
2021/08/23 05:01:39;;;;;;;2.40;2.30;;;25.20;57.80;;;;;;5105703;28;20406;-76
2021/08/23 05:04:08;;;;;;;1.93;1.83;;;25.20;57.80;;;;;;5105055;28;20446;-77
2021/08/23 05:06:37;;;;;;;2.47;2.37;;;25.20;57.90;;;;;;5105101;28;20495;-76
2021/08/23 05:09:05;;;;;;;2.07;1.97;;;25.20;57.80;;;;;;5105067;28;20533;-76
2021/08/23 05:11:35;;;;;;;2.40;2.30;;;25.20;57.80;;;;;;5104959;28;20475;-76
2021/08/23 05:14:08;;;;;;;2.37;2.27;;;25.20;57.80;;;;;;5104550;28;20442;-76
2021/08/23 05:16:36;;;;;;;2.27;2.17;;;25.20;57.80;;;;;;5105135;28;20461;-76
2021/08/23 05:19:06;;;;;;;2.20;2.10;;;25.20;57.80;;;;;;5104875;28;20479;-76
2021/08/23 05:21:34;;;;;;;2.40;2.30;;;25.20;57.70;;;;;;5104869;28;20475;-76
2021/08/23 05:24:03;;;;;;;2.17;2.07;;;25.20;57.70;;;;;;5104582;28;20500;-76
2021/08/23 05:26:33;;;;;;;2.53;2.43;;;25.20;57.60;;;;;;5104985;28;20410;-76
2021/08/23 05:29:01;;;;;;;2.57;2.47;;;25.20;57.60;;;;;;5104995;28;20480;-76
2021/08/23 05:31:29;;;;;;;2.10;2.00;;;25.20;57.60;;;;;;5104816;28;20501;-76
2021/08/23 05:33:57;;;;;;;2.10;2.00;;;25.20;57.60;;;;;;5104454;28;20444;-76
2021/08/23 05:36:26;;;;;;;2.23;2.13;;;25.20;57.50;;;;;;5104496;28;20414;-76
2021/08/23 05:38:56;;;;;;;2.03;1.93;;;25.20;57.50;;;;;;5104486;28;20414;-76
2021/08/23 05:41:24;;;;;;;2.00;1.97;;;25.20;57.50;;;;;;5104660;28;20467;-76
2021/08/23 05:43:52;;;;;;;2.27;2.17;;;25.20;57.50;;;;;;5104672;28;20568;-76
2021/08/23 05:46:21;;;;;;;2.20;2.10;;;25.20;57.50;;;;;;5104581;28;20432;-76
2021/08/23 05:48:49;;;;;;;2.00;1.90;;;25.20;57.50;;;;;;5103836;27;20474;-76
2021/08/23 05:51:19;;;;;;;2.00;1.90;;;25.20;57.50;;;;;;5103919;28;20454;-76
2021/08/23 05:53:51;;;;;;;2.57;2.37;;;25.20;57.50;;;;;;5103851;28;20439;-76
2021/08/23 05:56:19;;;;;;;2.10;2.00;;;25.20;57.40;;;;;;5103747;28;20410;-76
2021/08/23 05:58:47;;;;;;;3.37;2.40;;;25.30;57.30;;;;;;5103972;28;20413;-76
2021/08/23 06:01:15;;;;;;;2.30;2.10;;;25.30;57.30;;;;;;5104399;28;20402;-76
2021/08/23 06:03:44;;;;;;;2.60;2.40;;;25.30;57.40;;;;;;5104109;28;20497;-76
2021/08/23 06:06:13;;;;;;;2.67;2.47;;;25.30;57.40;;;;;;5104198;28;20480;-76
2021/08/23 06:08:42;;;;;;;2.20;2.10;;;25.30;57.30;;;;;;5104015;28;20449;-77
2021/08/23 06:11:11;;;;;;;2.70;2.40;;;25.30;57.30;;;;;;5104581;28;20436;-76
2021/08/23 06:13:39;;;;;;;2.07;1.97;;;25.30;57.30;;;;;;5104376;28;20447;-76
2021/08/23 06:16:07;;;;;;;2.53;2.43;;;25.30;57.20;;;;;;5108750;28;20490;-76
2021/08/23 06:18:35;;;;;;;2.40;2.30;;;25.30;57.20;;;;;;5108452;28;20419;-76
2021/08/23 06:21:03;;;;;;;2.97;2.77;;;25.30;57.20;;;;;;5108611;28;20494;-76
2021/08/23 06:23:31;;;;;;;2.50;2.40;;;25.30;57.10;;;;;;5108701;28;20418;-76
2021/08/23 06:25:59;;;;;;;2.73;2.53;;;25.30;57.20;;;;;;5108812;28;20451;-76
2021/08/23 06:28:28;;;;;;;2.30;2.20;;;25.30;57.20;;;;;;5107911;28;20461;-76
2021/08/23 06:30:56;;;;;;;2.17;1.97;;;25.40;57.20;;;;;;5108240;28;20475;-76
2021/08/23 06:33:25;;;;;;;2.40;2.30;;;25.40;57.20;;;;;;5108143;28;20505;-76
2021/08/23 06:35:53;;;;;;;2.20;2.10;;;25.40;57.10;;;;;;5107908;28;20483;-76
2021/08/23 06:38:20;;;;;;;2.37;2.27;;;25.40;57.00;;;;;;5107528;28;20434;-76
2021/08/23 06:40:48;;;;;;;2.60;2.40;;;25.40;56.90;;;;;;5108101;28;20446;-76
2021/08/23 06:43:17;;;;;;;2.10;2.00;;;25.50;56.90;;;;;;5107909;28;20433;-76
2021/08/23 06:45:46;;;;;;;2.40;2.20;;;25.50;56.80;;;;;;5108121;28;20428;-76
2021/08/23 06:48:14;;;;;;;2.23;2.13;;;25.60;56.90;;;;;;5107400;28;20441;-76
2021/08/23 06:50:42;;;;;;;2.07;1.97;;;25.60;56.90;;;;;;5108038;28;20465;-76
2021/08/23 06:53:10;;;;;;;2.30;2.20;;;25.60;56.60;;;;;;5107825;28;20459;-76
2021/08/23 06:55:38;;;;;;;2.27;2.17;;;25.70;56.70;;;;;;5107467;28;20410;-76
2021/08/23 06:58:09;;;;;;;2.30;2.20;;;25.70;56.60;;;;;;5107008;28;20508;-76
2021/08/23 07:00:37;;;;;;;2.10;2.00;;;25.70;56.60;;;;;;5107478;28;20489;-76
2021/08/23 07:03:06;;;;;;;3.03;2.40;;;25.70;56.60;;;;;;5107519;28;20439;-76
2021/08/23 07:05:35;;;;;;;2.20;2.10;;;25.70;56.60;;;;;;5107585;28;20391;-76
2021/08/23 07:08:05;;;;;;;2.50;2.30;;;25.80;56.50;;;;;;5107030;28;20438;-76
2021/08/23 07:10:33;;;;;;;1.90;1.80;;;25.80;56.40;;;;;;5107079;28;20539;-76
2021/08/23 07:13:02;;;;;;;2.53;2.40;;;25.80;56.40;;;;;;5106802;28;20435;-76
2021/08/23 07:15:30;;;;;;;2.97;2.20;;;25.90;56.40;;;;;;5106971;28;20418;-77
2021/08/23 07:17:58;;;;;;;2.20;2.07;;;25.90;56.30;;;;;;5106458;28;20459;-76
2021/08/23 07:20:28;;;;;;;2.60;2.40;;;26.00;56.20;;;;;;5107002;28;20406;-77
2021/08/23 07:22:56;;;;;;;2.37;2.17;;;26.10;56.30;;;;;;5106843;28;20436;-77
2021/08/23 07:25:24;;;;;;;3.73;1.97;;;26.20;56.00;;;;;;5106299;28;20447;-76
2021/08/23 07:27:52;;;;;;;2.20;2.10;;;26.20;56.00;;;;;;5107047;28;20430;-77
2021/08/23 07:30:20;;;;;;;2.40;2.30;;;26.20;55.90;;;;;;5106401;28;20511;-77
2021/08/23 07:32:48;;;;;;;1.97;1.83;;;26.20;55.80;;;;;;5106684;28;20407;-77
2021/08/23 07:35:16;;;;;;;2.00;1.90;;;26.40;56.00;;;;;;5106334;28;20436;-78
2021/08/23 07:37:46;;;;;;;2.40;2.20;;;26.40;55.90;;;;;;5106504;28;20503;-77
2021/08/23 07:40:14;;;;;;;2.20;2.00;;;26.40;55.60;;;;;;5106482;28;20424;-77
2021/08/23 07:42:42;;;;;;;2.90;2.10;;;26.50;55.80;;;;;;5106524;28;20459;-77
2021/08/23 07:45:13;;;;;;;2.30;2.20;;;26.60;55.70;;;;;;5105981;28;20414;-77
2021/08/23 07:47:44;;;;;;;2.07;1.97;;;26.60;55.80;;;;;;5105989;28;20487;-77
2021/08/23 07:50:12;;;;;;;2.00;1.90;;;26.60;55.60;;;;;;5106292;27;20475;-77
2021/08/23 07:52:40;;;;;;;2.20;2.10;;;26.70;55.70;;;;;;5106878;28;20468;-77
2021/08/23 07:55:10;;;;;;;2.20;2.00;;;26.70;55.50;;;;;;5105690;28;20476;-77
2021/08/23 07:57:41;;;;;;;2.40;2.30;;;26.90;55.60;;;;;;5106147;28;20524;-77
2021/08/23 08:00:10;;;;;;;2.30;2.10;;;27.00;55.40;;;;;;5106732;28;20410;-77
2021/08/23 08:02:39;;;;;;;1.87;1.77;;;27.10;55.20;;;;;;5106458;28;20452;-77
2021/08/23 08:05:07;;;;;;;2.10;2.00;;;27.30;55.20;;;;;;5106510;28;20456;-77
2021/08/23 08:07:37;;;;;;;2.10;2.00;;;27.40;55.00;;;;;;5105488;28;20428;-78
2021/08/23 08:10:06;;;;;;;2.10;2.00;;;27.40;54.80;;;;;;5106301;28;20472;-78
2021/08/23 08:12:35;;;;;;;2.07;1.87;;;27.60;54.70;;;;;;5105729;28;20415;-78
2021/08/23 08:15:03;;;;;;;1.97;1.87;;;27.70;54.60;;;;;;5106669;28;21101;-78
2021/08/23 08:17:31;;;;;;;1.90;1.80;;;27.70;54.50;;;;;;5105798;28;20428;-78
2021/08/23 08:19:59;;;;;;;1.90;1.80;;;27.90;54.30;;;;;;5105822;28;20424;-78
2021/08/23 08:22:27;;;;;;;2.13;2.03;;;28.00;54.10;;;;;;5105664;28;20442;-77
2021/08/23 08:24:55;;;;;;;2.10;2.00;;;28.10;54.00;;;;;;5106157;28;20423;-77
2021/08/23 08:27:23;;;;;;;1.80;1.70;;;28.20;53.70;;;;;;5105331;28;20415;-78
2021/08/23 08:29:53;;;;;;;1.80;1.70;;;28.30;53.70;;;;;;5105130;28;20442;-77
2021/08/23 08:32:21;;;;;;;2.43;1.90;;;28.40;53.40;;;;;;5105144;28;20463;-77
2021/08/23 08:34:49;;;;;;;2.20;2.10;;;28.50;53.50;;;;;;5105537;28;20433;-77
2021/08/23 08:37:17;;;;;;;2.20;2.10;;;28.70;53.40;;;;;;5104380;28;20415;-78
2021/08/23 08:39:45;;;;;;;2.00;1.90;;;28.70;53.10;;;;;;5104879;28;20444;-78
2021/08/23 08:42:13;;;;;;;1.73;1.63;;;28.80;53.00;;;;;;5105067;28;20436;-78
2021/08/23 08:44:41;;;;;;;1.80;1.70;;;29.00;52.90;;;;;;5104986;28;20448;-78
2021/08/23 08:47:16;;;;;;;2.20;2.00;;;29.00;52.60;;;;;;5105017;28;20445;-78
2021/08/23 08:49:44;;;;;;;1.73;1.63;;;29.10;52.50;;;;;;5105062;28;20475;-78
2021/08/23 08:52:12;;;;;;;1.83;1.73;;;29.20;52.50;;;;;;5104905;28;20439;-78
2021/08/23 08:54:40;;;;;;;2.20;1.83;;;29.30;52.40;;;;;;5105017;28;20435;-77
2021/08/23 08:57:08;;;;;;;4.50;1.83;;;29.40;52.20;;;;;;5098091;28;20473;-85
2021/08/23 08:59:36;;;;;;;3.57;2.83;;;29.10;51.30;;;;;;5102820;28;20431;-84
2021/08/23 09:02:05;;;;;;;2.87;1.70;;;28.40;50.90;;;;;;5094359;28;20524;-84
2021/08/23 09:04:36;;;;;;;1.93;1.70;;;28.00;51.20;;;;;;5097291;28;20475;-87
2021/08/23 09:07:06;;;;;;;2.03;1.53;;;28.00;51.00;;;;;;5102772;28;20439;-80
2021/08/23 09:09:35;;;;;;;2.60;1.67;;;27.40;51.00;;;;;;5104758;28;20534;-79
2021/08/23 09:12:04;;;;;;;1.80;1.70;;;27.00;51.90;;;;;;5102718;28;20415;-80
2021/08/23 09:14:33;;;;;;;1.70;1.60;;;27.20;52.30;;;;;;5105587;28;20443;-80
2021/08/23 09:17:04;;;;;;;9.13;1.77;;;27.10;52.00;;;;;;5091214;28;20427;-77
2021/08/23 09:19:34;;;;;;;9.30;1.80;;;27.50;52.30;;;;;;5091110;28;20488;-80
2021/08/23 09:22:08;;;;;;;8.20;1.57;;;27.90;51.80;;;;;;5100331;28;20467;-80
2021/08/23 09:24:39;;;;;;;6.60;1.43;;;28.40;51.10;;;;;;5096884;27;20429;-80
2021/08/23 09:27:08;;;;;;;3.27;1.63;;;28.80;50.30;;;;;;5097951;27;20456;-80
2021/08/23 09:29:54;;;;;;;3.00;2.10;;;29.10;49.90;;;;;;5090682;28;20559;-79
2021/08/23 09:32:23;;;;;;;1.60;1.50;;;29.20;49.20;;;;;;5093255;28;20448;-79
2021/08/23 09:35:01;;;;;;;1.50;1.20;;;29.30;49.30;;;;;;5106745;27;20405;-81
2021/08/23 09:37:32;;;;;;;1.73;1.10;;;29.50;49.30;;;;;;5105288;27;20474;-80
2021/08/23 09:40:11;;;;;;;5.80;1.30;;;29.60;49.10;;;;;;5104226;27;20447;-80
2021/08/23 09:42:42;;;;;;;1.80;1.30;;;29.80;48.90;;;;;;5096244;28;20543;-80
2021/08/23 09:45:16;;;;;;;3.80;1.27;;;30.00;48.70;;;;;;5103285;28;20451;-81
2021/08/23 09:47:59;;;;;;;1.97;1.10;;;30.00;48.30;;;;;;5086266;28;20449;-81
2021/08/23 09:50:37;;;;;;;1.27;1.27;;;30.00;48.40;;;;;;5088047;28;20469;-81
2021/08/23 09:53:15;;;;;;;3.53;1.10;;;30.10;48.30;;;;;;5100382;28;20406;-79
2021/08/23 09:55:49;;;;;;;2.90;1.40;;;30.10;48.40;;;;;;5091910;28;20513;-80
2021/08/23 09:58:19;;;;;;;3.60;1.30;;;30.30;48.30;;;;;;5096944;28;20451;-80
2021/08/23 10:00:54;;;;;;;1.10;1.00;;;30.40;48.00;;;;;;5096194;28;20407;-81
2021/08/23 10:03:24;;;;;;;3.17;1.30;;;30.50;47.80;;;;;;5104206;27;20476;-80
2021/08/23 10:06:15;;;;;;;1.20;1.17;;;30.60;47.70;;;;;;5091855;28;20453;-80
2021/08/23 10:08:46;;;;;;;1.20;1.10;;;30.70;47.50;;;;;;5088880;28;20469;-80
2021/08/23 10:11:14;;;;;;;2.07;1.50;;;30.70;47.20;;;;;;5087719;28;20472;-80
2021/08/23 10:13:42;;;;;;;1.93;1.30;;;30.70;47.00;;;;;;5086337;28;20452;-80
2021/08/23 10:16:10;;;;;;;1.73;1.43;;;30.70;47.30;;;;;;5085870;28;20441;-80
2021/08/23 10:18:38;;;;;;;1.63;1.33;;;30.80;47.20;;;;;;5085160;28;20455;-80
2021/08/23 10:21:08;;;;;;;1.50;1.40;;;30.90;47.10;;;;;;5087997;28;20452;-79
2021/08/23 10:23:37;;;;;;;1.40;1.30;;;31.00;46.80;;;;;;5088107;28;20448;-79
2021/08/23 10:26:05;;;;;;;1.23;1.13;;;31.10;46.90;;;;;;5097498;28;20449;-79
2021/08/23 10:28:37;;;;;;;1.30;1.00;;;31.20;46.80;;;;;;5093602;28;20519;-80
2021/08/23 10:31:08;;;;;;;1.77;1.20;;;31.30;46.50;;;;;;5108406;28;20561;-78
2021/08/23 10:33:37;;;;;;;4.80;1.33;;;31.30;46.30;;;;;;5098325;28;20463;-78
2021/08/23 10:36:07;;;;;;;6.70;1.23;;;31.40;46.50;;;;;;5103598;28;20436;-79
2021/08/23 10:38:36;;;;;;;2.27;1.10;;;31.40;46.20;;;;;;5097182;28;20448;-79
2021/08/23 10:41:08;;;;;;;1.30;1.20;;;31.50;46.10;;;;;;5101356;28;20527;-80
2021/08/23 10:43:47;;;;;;;1.73;1.30;;;31.50;45.90;;;;;;5093582;28;20460;-79
2021/08/23 10:46:23;;;;;;;3.17;0.90;;;31.60;45.90;;;;;;5094525;28;20452;-78
2021/08/23 10:48:51;;;;;;;1.67;1.00;;;31.60;45.70;;;;;;5099942;28;20449;-79
2021/08/23 10:51:30;;;;;;;3.87;1.13;;;31.60;45.60;;;;;;5102805;28;20480;-79
2021/08/23 10:53:59;;;;;;;1.23;1.03;;;31.60;45.70;;;;;;5102946;28;20472;-79
2021/08/23 10:56:35;;;;;;;1.40;0.97;;;31.70;45.70;;;;;;5098767;28;20451;-79
2021/08/23 10:59:13;;;;;;;1.10;1.00;;;31.80;45.60;;;;;;5097681;28;20483;-79
2021/08/23 11:01:41;;;;;;;1.40;1.40;;;31.60;45.40;;;;;;5098695;28;20523;-79
2021/08/23 11:04:09;;;;;;;2.27;1.10;;;31.70;45.70;;;;;;5095266;28;20481;-79
2021/08/23 11:06:48;;;;;;;14.50;1.27;;;31.70;45.30;;;;;;5097270;28;20443;-78
2021/08/23 11:09:17;;;;;;;2.00;1.10;;;31.80;45.40;;;;;;5094494;27;20429;-78
2021/08/23 11:11:45;;;;;;;1.80;0.97;;;31.90;45.40;;;;;;5096994;27;20503;-78
2021/08/23 11:14:17;;;;;;;1.30;1.00;;;31.90;45.30;;;;;;5092939;27;20449;-78
2021/08/23 11:16:51;;;;;;;1.07;1.00;;;31.90;45.30;;;;;;5091874;28;20454;-78
2021/08/23 11:19:20;;;;;;;2.50;1.00;;;32.00;45.10;;;;;;5091580;28;20424;-78
2021/08/23 11:21:55;;;;;;;3.27;1.20;;;31.90;45.30;;;;;;5089606;28;20535;-78
2021/08/23 11:24:26;;;;;;;1.43;0.90;;;31.90;45.50;;;;;;5096418;27;20424;-77
2021/08/23 11:26:55;;;;;;;0.93;0.93;;;31.80;45.70;;;;;;5095089;27;20526;-77
2021/08/23 11:29:23;;;;;;;1.40;1.20;;;31.80;45.30;;;;;;5089639;27;20533;-77
2021/08/23 11:31:56;;;;;;;1.30;0.90;;;31.60;45.40;;;;;;5097198;27;20549;-78
2021/08/23 11:34:28;;;;;;;1.17;1.10;;;31.70;45.40;;;;;;5093304;27;20502;-78
2021/08/23 11:37:00;;;;;;;1.07;1.07;;;31.80;45.30;;;;;;5094063;27;20462;-78
2021/08/23 11:39:30;;;;;;;1.00;1.00;;;31.90;45.30;;;;;;5098761;27;20442;-78
2021/08/23 11:41:59;;;;;;;2.17;1.03;;;31.90;45.30;;;;;;5098437;27;20451;-78
2021/08/23 11:44:27;;;;;;;1.73;1.00;;;31.90;45.50;;;;;;5094040;27;20437;-78
2021/08/23 11:46:56;;;;;;;2.13;0.90;;;32.00;45.30;;;;;;5086933;27;20460;-78
2021/08/23 11:49:31;;;;;;;0.93;0.93;;;32.10;45.00;;;;;;5100792;27;20455;-78
2021/08/23 11:51:59;;;;;;;1.03;1.03;;;32.10;44.80;;;;;;5104903;27;20474;-78
2021/08/23 11:54:27;;;;;;;2.50;1.17;;;32.20;44.90;;;;;;5118124;27;20435;-78
2021/08/23 11:57:06;;;;;;;1.10;1.10;;;32.30;44.70;;;;;;5126960;27;20499;-78
2021/08/23 11:59:34;;;;;;;0.90;0.80;;;32.30;44.70;;;;;;5126716;27;20486;-78
2021/08/23 12:02:14;;;;;;;1.67;0.90;;;32.20;44.60;;;;;;5127090;27;20506;-78
2021/08/23 12:04:42;;;;;;;2.10;1.10;;;32.30;44.60;;;;;;5094670;28;20442;-78
2021/08/23 12:07:10;;;;;;;1.37;0.90;;;32.30;44.50;;;;;;5086406;28;20551;-78
2021/08/23 12:09:38;;;;;;;0.97;0.93;;;32.40;44.60;;;;;;5085250;28;20464;-78
2021/08/23 12:12:21;;;;;;;0.80;0.80;;;32.30;44.20;;;;;;5085701;28;20460;-79
2021/08/23 12:14:58;;;;;;;1.20;1.10;;;32.20;44.50;;;;;;5086264;28;20468;-79
2021/08/23 12:17:30;;;;;;;1.67;1.00;;;32.20;44.40;;;;;;5085582;28;20488;-78
2021/08/23 12:20:06;;;;;;;0.93;0.90;;;32.30;44.40;;;;;;5085552;28;20536;-77
2021/08/23 12:22:34;;;;;;;1.33;1.00;;;32.40;44.20;;;;;;5085782;28;20452;-77
2021/08/23 12:25:02;;;;;;;1.40;0.90;;;32.50;44.20;;;;;;5085730;28;20440;-77
2021/08/23 12:27:31;;;;;;;3.97;1.20;;;32.50;44.20;;;;;;5097059;28;20436;-80
2021/08/23 12:30:00;;;;;;;7.23;1.10;;;32.40;44.50;;;;;;5106139;28;20455;-79
2021/08/23 12:32:34;;;;;;;3.83;1.10;;;32.50;44.20;;;;;;5106036;28;20478;-78
2021/08/23 12:35:02;;;;;;;3.30;1.20;;;32.70;44.80;;;;;;5106016;28;20436;-79
2021/08/23 12:37:31;;;;;;;5.80;1.47;;;33.00;44.30;;;;;;5105931;28;20436;-80
2021/08/23 12:39:59;;;;;;;5.43;1.20;;;33.40;44.20;;;;;;5105795;28;20523;-79
2021/08/23 12:42:27;;;;;;;4.30;1.03;;;33.50;43.60;;;;;;5105691;28;20432;-79
2021/08/23 12:44:56;;;;;;;2.13;1.00;;;33.70;43.60;;;;;;5105637;28;20456;-80
2021/08/23 12:47:24;;;;;;;2.70;1.00;;;33.90;43.30;;;;;;5105396;28;20516;-80
2021/08/23 12:49:53;;;;;;;2.20;1.33;;;34.10;43.10;;;;;;5105285;28;20505;-79
2021/08/23 12:52:21;;;;;;;3.17;1.40;;;34.30;43.10;;;;;;5105384;28;20467;-79
2021/08/23 12:54:48;;;;;;;2.90;1.20;;;34.20;42.80;;;;;;5106146;28;20482;-79
2021/08/23 12:57:23;;;;;;;7.00;1.00;;;34.10;43.00;;;;;;5105422;28;20432;-79
2021/08/23 12:59:51;;;;;;;2.80;1.00;;;34.20;43.00;;;;;;5105686;28;20452;-79